Time;durP1;ratioP1;P1;durP2;ratioP2;P2;SDS_P1;SDS_P2;PMS_P1;PMS_P2;Temp;Humidity;BMP_temperature;BMP_pressure;BME280_temperature;BME280_humidity;BME280_pressure;Samples;Min_cycle;Max_cycle;Signal;HPM_P1;HPM_P2
2021/08/17 00:01:41;;;;;;;1.90;0.93;;;15.30;56.40;;;;;;5010409;28;20661;-47
2021/08/17 00:04:11;;;;;;;1.65;0.98;;;15.30;56.40;;;;;;5002415;28;20243;-46
2021/08/17 00:06:44;;;;;;;0.98;0.80;;;15.30;56.40;;;;;;4990933;28;20308;-47
2021/08/17 00:09:14;;;;;;;0.98;0.60;;;15.30;56.40;;;;;;4990953;28;20244;-47
2021/08/17 00:11:45;;;;;;;0.85;0.68;;;15.40;56.40;;;;;;4991701;28;20247;-53
2021/08/17 00:14:15;;;;;;;0.88;0.60;;;15.40;56.30;;;;;;4992078;28;20241;-50
2021/08/17 00:16:46;;;;;;;0.73;0.52;;;15.40;56.20;;;;;;4990456;28;20316;-43
2021/08/17 00:19:16;;;;;;;1.40;0.70;;;15.40;56.30;;;;;;4991796;28;20240;-44
2021/08/17 00:21:48;;;;;;;1.38;0.80;;;15.40;56.20;;;;;;4991744;28;20284;-44
2021/08/17 00:24:19;;;;;;;1.40;0.63;;;15.40;56.20;;;;;;4991858;28;20623;-45
2021/08/17 00:26:49;;;;;;;0.82;0.70;;;15.40;56.10;;;;;;4988425;28;20709;-44
2021/08/17 00:29:20;;;;;;;0.90;0.80;;;15.50;56.20;;;;;;4991544;28;20240;-44
2021/08/17 00:31:50;;;;;;;1.00;0.70;;;15.50;56.10;;;;;;4987969;28;20292;-44
2021/08/17 00:34:20;;;;;;;0.60;0.60;;;15.50;56.10;;;;;;4991531;28;20241;-47
2021/08/17 00:36:53;;;;;;;0.82;0.68;;;15.50;56.10;;;;;;4991737;28;20304;-43
2021/08/17 00:39:23;;;;;;;0.95;0.50;;;15.50;56.10;;;;;;4991433;28;20225;-44
2021/08/17 00:41:54;;;;;;;0.60;0.50;;;15.60;56.10;;;;;;4992199;28;20247;-44
2021/08/17 00:44:25;;;;;;;1.33;0.50;;;15.60;56.10;;;;;;4995267;28;20688;-43
2021/08/17 00:46:55;;;;;;;0.85;0.50;;;15.60;56.10;;;;;;4995368;28;20267;-44
2021/08/17 00:49:26;;;;;;;0.75;0.50;;;15.60;56.00;;;;;;4995234;28;20625;-45
2021/08/17 00:51:59;;;;;;;1.13;0.60;;;15.60;56.00;;;;;;4995405;28;20232;-43
2021/08/17 00:54:29;;;;;;;0.98;0.70;;;15.60;56.00;;;;;;4995230;28;20722;-43
2021/08/17 00:56:59;;;;;;;0.63;0.50;;;15.70;56.00;;;;;;4994818;28;20741;-50
2021/08/17 00:59:30;;;;;;;0.95;0.55;;;15.60;55.90;;;;;;4994929;28;20260;-53
2021/08/17 01:02:00;;;;;;;2.13;0.70;;;15.70;55.90;;;;;;4995301;28;20201;-47
2021/08/17 01:04:31;;;;;;;0.80;0.60;;;15.60;55.90;;;;;;4992507;28;20292;-50
2021/08/17 01:07:03;;;;;;;1.10;0.60;;;15.70;55.90;;;;;;4995099;28;20225;-48
2021/08/17 01:09:34;;;;;;;0.80;0.80;;;15.70;55.80;;;;;;4993607;28;20244;-48
2021/08/17 01:12:04;;;;;;;0.73;0.60;;;15.70;55.80;;;;;;4994935;28;20237;-51
2021/08/17 01:14:35;;;;;;;0.57;0.52;;;15.80;55.80;;;;;;4994458;28;20229;-43
2021/08/17 01:17:05;;;;;;;0.95;0.70;;;15.80;55.80;;;;;;4993640;28;20264;-44
2021/08/17 01:19:37;;;;;;;1.33;0.70;;;15.80;55.80;;;;;;4993668;28;20229;-46
2021/08/17 01:22:09;;;;;;;0.63;0.45;;;15.80;55.70;;;;;;4993626;28;20233;-43
2021/08/17 01:24:39;;;;;;;0.50;0.50;;;15.80;55.70;;;;;;4994704;28;20251;-43
2021/08/17 01:27:12;;;;;;;0.63;0.60;;;15.80;55.60;;;;;;4993461;28;20264;-48
2021/08/17 01:29:43;;;;;;;0.95;0.60;;;15.90;55.60;;;;;;4994206;28;20232;-45
2021/08/17 01:32:15;;;;;;;0.60;0.50;;;15.90;55.60;;;;;;4992701;28;20381;-45
2021/08/17 01:34:45;;;;;;;0.65;0.50;;;15.90;55.50;;;;;;4993526;28;20673;-43
2021/08/17 01:37:16;;;;;;;0.90;0.70;;;15.90;55.50;;;;;;4994003;28;20316;-43
2021/08/17 01:39:46;;;;;;;0.95;0.60;;;15.90;55.40;;;;;;4993245;28;20285;-43
2021/08/17 01:42:18;;;;;;;0.85;0.70;;;15.90;55.40;;;;;;4993216;28;20236;-45
2021/08/17 01:44:49;;;;;;;0.60;0.60;;;15.90;55.40;;;;;;4992621;28;20229;-46
2021/08/17 01:47:19;;;;;;;0.40;0.40;;;15.90;55.30;;;;;;4993950;28;20356;-46
2021/08/17 01:49:50;;;;;;;0.85;0.70;;;16.00;55.30;;;;;;4993482;28;20233;-44
2021/08/17 01:52:20;;;;;;;0.50;0.50;;;16.00;55.30;;;;;;4993100;28;20648;-43
2021/08/17 01:54:51;;;;;;;0.40;0.40;;;16.00;55.30;;;;;;4991845;28;20669;-44
2021/08/17 01:57:23;;;;;;;0.40;0.40;;;16.10;55.20;;;;;;4992881;28;20312;-44
2021/08/17 01:59:53;;;;;;;0.52;0.47;;;16.00;55.20;;;;;;4993503;28;20252;-45
2021/08/17 02:02:24;;;;;;;0.65;0.43;;;16.00;55.10;;;;;;4993378;28;20232;-48
2021/08/17 02:04:54;;;;;;;0.45;0.43;;;16.00;55.10;;;;;;4992478;28;20240;-43
2021/08/17 02:07:25;;;;;;;0.85;0.63;;;16.00;55.00;;;;;;4992899;28;20684;-44
2021/08/17 02:09:55;;;;;;;0.73;0.50;;;16.10;55.10;;;;;;4993708;28;20615;-46
2021/08/17 02:12:27;;;;;;;0.47;0.47;;;16.10;55.00;;;;;;5006994;23;20965;-57
2021/08/17 02:14:58;;;;;;;0.40;0.40;;;16.10;54.90;;;;;;5013166;28;20553;-59
2021/08/17 02:17:28;;;;;;;0.55;0.38;;;16.20;54.90;;;;;;5012606;28;20675;-57
2021/08/17 02:19:59;;;;;;;0.45;0.45;;;16.20;54.80;;;;;;5011625;28;20189;-58
2021/08/17 02:22:29;;;;;;;0.55;0.47;;;16.20;54.80;;;;;;5011916;28;20584;-60
2021/08/17 02:25:00;;;;;;;0.98;0.50;;;16.20;54.80;;;;;;5012758;28;20243;-56
2021/08/17 02:27:35;;;;;;;0.40;0.40;;;16.30;54.90;;;;;;5012051;28;20271;-56
2021/08/17 02:30:06;;;;;;;1.75;0.40;;;16.30;54.90;;;;;;5012065;28;20648;-55
2021/08/17 02:32:36;;;;;;;1.20;0.50;;;16.30;54.90;;;;;;5012484;28;20613;-57
2021/08/17 02:35:07;;;;;;;0.45;0.40;;;16.30;54.80;;;;;;5010636;28;20306;-58
2021/08/17 02:37:38;;;;;;;0.40;0.40;;;16.40;54.90;;;;;;5011395;28;20311;-57
2021/08/17 02:40:09;;;;;;;0.30;0.30;;;16.40;54.90;;;;;;5011538;28;20255;-58
2021/08/17 02:42:41;;;;;;;0.38;0.38;;;16.40;54.90;;;;;;5012482;28;20288;-56
2021/08/17 02:45:12;;;;;;;0.55;0.32;;;16.40;54.80;;;;;;5009948;28;20239;-59
2021/08/17 02:47:42;;;;;;;0.40;0.40;;;16.50;54.90;;;;;;5012821;28;20478;-58
2021/08/17 02:50:13;;;;;;;0.57;0.32;;;16.50;54.80;;;;;;5011541;28;20263;-57
2021/08/17 02:52:44;;;;;;;0.40;0.40;;;16.50;54.80;;;;;;5011787;28;20224;-58
2021/08/17 02:55:15;;;;;;;1.40;0.43;;;16.50;54.80;;;;;;5011408;28;20371;-58
2021/08/17 02:57:52;;;;;;;0.30;0.30;;;16.50;54.70;;;;;;5011649;28;20264;-55
2021/08/17 03:00:23;;;;;;;0.43;0.40;;;16.60;54.70;;;;;;5011284;28;20704;-57
2021/08/17 03:02:54;;;;;;;0.57;0.38;;;16.60;54.60;;;;;;5011399;28;20224;-58
2021/08/17 03:05:24;;;;;;;0.38;0.38;;;16.60;54.60;;;;;;5010375;28;20243;-57
2021/08/17 03:07:55;;;;;;;0.50;0.40;;;16.60;54.60;;;;;;5011431;28;20217;-55
2021/08/17 03:10:26;;;;;;;0.35;0.35;;;16.70;54.60;;;;;;5011295;28;20633;-58
2021/08/17 03:12:58;;;;;;;0.40;0.40;;;16.70;54.50;;;;;;5023267;23;20221;-49
2021/08/17 03:15:32;;;;;;;0.38;0.30;;;16.70;54.60;;;;;;5011485;28;20235;-48
2021/08/17 03:18:03;;;;;;;0.45;0.40;;;16.80;54.50;;;;;;5010631;28;20227;-44
2021/08/17 03:20:33;;;;;;;0.35;0.35;;;16.80;54.80;;;;;;5011403;28;20551;-44
2021/08/17 03:23:04;;;;;;;0.43;0.43;;;16.80;54.50;;;;;;5011390;28;20624;-45
2021/08/17 03:25:34;;;;;;;0.35;0.32;;;16.80;54.50;;;;;;5011694;28;20631;-42
2021/08/17 03:28:07;;;;;;;0.30;0.30;;;16.90;54.60;;;;;;5011110;28;20708;-43
2021/08/17 03:30:37;;;;;;;0.30;0.28;;;16.90;54.60;;;;;;5010214;28;20291;-45
2021/08/17 03:33:08;;;;;;;0.35;0.35;;;16.90;54.60;;;;;;5011409;28;20287;-48
2021/08/17 03:35:38;;;;;;;0.68;0.40;;;16.90;54.60;;;;;;5011299;28;20237;-46
2021/08/17 03:38:09;;;;;;;0.20;0.20;;;16.90;54.60;;;;;;5011031;28;20264;-51
2021/08/17 03:40:40;;;;;;;0.40;0.20;;;17.00;54.50;;;;;;5011260;28;20235;-42
2021/08/17 03:43:12;;;;;;;0.47;0.30;;;17.00;54.50;;;;;;5012042;28;20197;-47
2021/08/17 03:45:42;;;;;;;0.25;0.25;;;17.00;54.50;;;;;;5010838;28;20197;-43
2021/08/17 03:48:13;;;;;;;0.30;0.30;;;17.10;54.50;;;;;;5011147;28;20200;-45
2021/08/17 03:50:43;;;;;;;0.40;0.40;;;17.10;54.50;;;;;;5010444;28;20240;-52
2021/08/17 03:53:14;;;;;;;0.47;0.30;;;17.10;54.40;;;;;;5010551;28;20283;-46
2021/08/17 03:55:44;;;;;;;0.52;0.40;;;17.10;54.40;;;;;;5011270;28;20236;-43
2021/08/17 03:58:16;;;;;;;0.30;0.30;;;17.20;54.40;;;;;;5010771;28;20390;-44
2021/08/17 04:00:47;;;;;;;0.40;0.40;;;17.20;54.50;;;;;;5009336;28;20247;-50
2021/08/17 04:03:17;;;;;;;0.40;0.40;;;17.20;54.40;;;;;;5010245;28;20284;-47
2021/08/17 04:05:48;;;;;;;0.40;0.40;;;17.30;54.40;;;;;;5010982;28;20235;-50
2021/08/17 04:08:18;;;;;;;0.30;0.30;;;17.30;54.40;;;;;;5010906;28;20239;-53
2021/08/17 04:10:48;;;;;;;0.30;0.30;;;17.30;54.30;;;;;;5011056;28;20617;-47
2021/08/17 04:13:21;;;;;;;0.40;0.30;;;17.30;54.30;;;;;;5030637;23;20650;-51
2021/08/17 04:15:51;;;;;;;0.50;0.30;;;17.40;54.20;;;;;;5029021;28;20232;-56
2021/08/17 04:18:22;;;;;;;0.30;0.30;;;17.40;54.20;;;;;;5033676;28;20258;-56
2021/08/17 04:20:52;;;;;;;0.40;0.35;;;17.40;54.20;;;;;;5034089;28;20668;-54
2021/08/17 04:23:22;;;;;;;0.20;0.20;;;17.40;54.10;;;;;;5033932;28;20664;-52
2021/08/17 04:25:53;;;;;;;0.20;0.20;;;17.50;54.10;;;;;;5033821;28;20235;-52
2021/08/17 04:28:25;;;;;;;0.30;0.30;;;17.50;54.10;;;;;;5034167;28;20632;-52
2021/08/17 04:30:56;;;;;;;0.40;0.40;;;17.50;54.00;;;;;;5021960;28;20280;-49
2021/08/17 04:33:26;;;;;;;0.30;0.30;;;17.50;54.00;;;;;;5014646;28;20284;-49
2021/08/17 04:35:56;;;;;;;0.40;0.40;;;17.60;54.00;;;;;;5014274;28;20236;-53
2021/08/17 04:38:27;;;;;;;0.50;0.40;;;17.60;53.90;;;;;;5013813;28;20770;-52
2021/08/17 04:40:57;;;;;;;0.22;0.22;;;17.60;53.90;;;;;;5014404;28;20673;-52
2021/08/17 04:43:29;;;;;;;0.30;0.30;;;17.50;53.70;;;;;;5013689;28;20296;-55
2021/08/17 04:46:00;;;;;;;0.30;0.30;;;17.60;53.70;;;;;;5014957;28;20229;-50
2021/08/17 04:48:30;;;;;;;0.30;0.30;;;17.60;53.70;;;;;;5014396;28;20243;-50
2021/08/17 04:51:01;;;;;;;0.43;0.32;;;17.60;53.70;;;;;;5014889;28;20243;-50
2021/08/17 04:53:31;;;;;;;0.30;0.30;;;17.60;53.60;;;;;;5014474;28;20226;-54
2021/08/17 04:56:02;;;;;;;0.40;0.40;;;17.60;53.60;;;;;;5013512;28;20292;-52
2021/08/17 04:58:34;;;;;;;0.40;0.40;;;17.60;53.50;;;;;;5014235;28;20263;-49
2021/08/17 05:01:04;;;;;;;0.43;0.30;;;17.60;53.50;;;;;;5014553;28;20243;-54
2021/08/17 05:03:35;;;;;;;0.30;0.30;;;17.60;53.40;;;;;;5014659;28;20309;-51
2021/08/17 05:06:05;;;;;;;0.30;0.30;;;17.60;53.40;;;;;;5014547;28;20717;-50
2021/08/17 05:08:35;;;;;;;0.20;0.20;;;17.60;53.30;;;;;;5014846;28;20292;-52
2021/08/17 05:11:06;;;;;;;0.32;0.30;;;17.60;53.40;;;;;;5014219;28;20228;-51
2021/08/17 05:13:38;;;;;;;0.30;0.30;;;17.60;53.40;;;;;;5014264;28;20248;-51
2021/08/17 05:16:10;;;;;;;0.30;0.30;;;17.50;53.40;;;;;;5014012;28;20256;-51
2021/08/17 05:18:40;;;;;;;0.40;0.40;;;17.60;53.40;;;;;;5014151;28;20228;-51
2021/08/17 05:21:11;;;;;;;0.50;0.30;;;17.60;53.50;;;;;;5014061;28;20288;-48
2021/08/17 05:23:43;;;;;;;0.88;0.40;;;17.50;53.50;;;;;;5012542;28;20303;-51
2021/08/17 05:26:13;;;;;;;0.43;0.32;;;17.50;53.40;;;;;;5013245;28;20260;-50
2021/08/17 05:28:46;;;;;;;0.40;0.40;;;17.50;53.50;;;;;;5012603;28;20236;-54
2021/08/17 05:31:16;;;;;;;0.30;0.30;;;17.50;53.50;;;;;;5013243;28;20228;-54
2021/08/17 05:33:46;;;;;;;0.40;0.40;;;17.50;53.50;;;;;;5013180;28;20581;-48
2021/08/17 05:36:17;;;;;;;0.50;0.50;;;17.50;53.50;;;;;;5013245;28;20309;-54
2021/08/17 05:38:47;;;;;;;0.45;0.45;;;17.40;53.40;;;;;;5012805;28;20260;-52
2021/08/17 05:41:18;;;;;;;0.50;0.47;;;17.50;53.50;;;;;;5011434;28;20682;-57
2021/08/17 05:43:50;;;;;;;0.40;0.40;;;17.50;53.50;;;;;;5013291;28;20283;-54
2021/08/17 05:46:22;;;;;;;0.68;0.57;;;17.40;53.40;;;;;;5012746;28;20252;-55
2021/08/17 05:48:52;;;;;;;0.40;0.40;;;17.40;53.30;;;;;;5013659;28;20217;-56
2021/08/17 05:51:23;;;;;;;0.47;0.47;;;17.40;53.30;;;;;;5013319;28;20197;-56
2021/08/17 05:53:53;;;;;;;0.43;0.43;;;17.40;53.40;;;;;;5012601;28;20228;-57
2021/08/17 05:56:24;;;;;;;0.88;0.50;;;17.40;53.30;;;;;;5012714;28;20252;-54
2021/08/17 05:58:56;;;;;;;0.40;0.40;;;17.40;53.30;;;;;;5013642;28;20275;-54
2021/08/17 06:01:27;;;;;;;0.60;0.50;;;17.40;53.30;;;;;;5013420;28;20692;-54
2021/08/17 06:04:00;;;;;;;0.40;0.40;;;17.40;53.30;;;;;;5013631;28;20318;-52
2021/08/17 06:06:30;;;;;;;0.60;0.50;;;17.40;53.30;;;;;;5012729;28;20248;-54
2021/08/17 06:09:01;;;;;;;0.80;0.60;;;17.30;53.20;;;;;;5013423;28;20240;-54
2021/08/17 06:11:31;;;;;;;0.50;0.50;;;17.30;53.10;;;;;;5013095;28;20236;-56
2021/08/17 06:14:04;;;;;;;0.63;0.50;;;17.30;53.10;;;;;;5031480;22;20240;-59
2021/08/17 06:16:34;;;;;;;0.63;0.63;;;17.20;53.20;;;;;;5013052;28;20259;-59
2021/08/17 06:19:04;;;;;;;0.57;0.57;;;17.30;53.20;;;;;;5012710;28;20626;-58
2021/08/17 06:21:35;;;;;;;0.60;0.50;;;17.20;53.20;;;;;;5010244;28;20243;-58
2021/08/17 06:24:05;;;;;;;0.60;0.60;;;17.20;53.20;;;;;;5005158;28;20209;-52
2021/08/17 06:26:36;;;;;;;0.50;0.50;;;17.20;53.30;;;;;;5012455;28;20252;-59
2021/08/17 06:29:08;;;;;;;0.47;0.47;;;17.20;53.30;;;;;;5012906;28;20197;-57
2021/08/17 06:31:39;;;;;;;0.93;0.55;;;17.20;53.30;;;;;;5012722;28;20255;-58
2021/08/17 06:34:09;;;;;;;1.00;0.65;;;17.10;53.90;;;;;;5012660;28;20205;-58
2021/08/17 06:36:40;;;;;;;0.82;0.75;;;17.20;53.40;;;;;;5011986;28;20263;-58
2021/08/17 06:39:10;;;;;;;0.60;0.60;;;17.10;53.30;;;;;;5012606;28;20225;-58
2021/08/17 06:41:41;;;;;;;0.50;0.50;;;17.10;53.30;;;;;;5011783;28;20196;-60
2021/08/17 06:44:13;;;;;;;0.50;0.50;;;17.10;53.40;;;;;;4992428;28;20745;-58
2021/08/17 06:46:43;;;;;;;0.52;0.52;;;17.10;53.30;;;;;;4992720;28;20325;-58
2021/08/17 06:49:14;;;;;;;0.60;0.60;;;17.10;53.40;;;;;;4993145;28;20236;-58
2021/08/17 06:51:44;;;;;;;0.50;0.50;;;17.00;53.30;;;;;;5000888;28;20255;-58
2021/08/17 06:54:15;;;;;;;0.57;0.57;;;17.00;53.30;;;;;;5012565;28;20236;-57
2021/08/17 06:56:45;;;;;;;0.52;0.52;;;17.00;53.40;;;;;;5011901;28;20712;-59
2021/08/17 06:59:17;;;;;;;0.50;0.50;;;17.00;53.40;;;;;;5012337;28;20646;-58
2021/08/17 07:01:48;;;;;;;0.80;0.60;;;17.00;53.50;;;;;;5012858;28;20255;-58
2021/08/17 07:04:18;;;;;;;0.70;0.70;;;16.90;53.40;;;;;;5012251;28;20193;-58
2021/08/17 07:06:49;;;;;;;0.60;0.60;;;16.90;53.40;;;;;;5011955;28;20217;-58
2021/08/17 07:09:19;;;;;;;0.85;0.70;;;16.90;53.50;;;;;;5012226;28;20228;-59
2021/08/17 07:11:49;;;;;;;0.65;0.60;;;16.90;53.50;;;;;;5012303;28;20629;-58
2021/08/17 07:14:22;;;;;;;0.60;0.60;;;16.90;53.50;;;;;;5007728;23;20604;-46
2021/08/17 07:16:52;;;;;;;0.60;0.60;;;16.90;53.60;;;;;;4992154;28;20658;-45
2021/08/17 07:19:23;;;;;;;0.73;0.60;;;16.80;53.60;;;;;;4992529;28;20773;-52
2021/08/17 07:21:53;;;;;;;0.70;0.70;;;16.80;53.60;;;;;;4992646;28;20288;-52
2021/08/17 07:24:23;;;;;;;0.60;0.60;;;16.80;53.60;;;;;;4991961;28;20233;-51
2021/08/17 07:26:54;;;;;;;0.82;0.70;;;16.80;53.60;;;;;;4991575;28;20308;-50
2021/08/17 07:29:26;;;;;;;0.80;0.80;;;16.80;53.60;;;;;;4992175;28;20243;-42
2021/08/17 07:31:57;;;;;;;1.02;0.88;;;16.80;53.60;;;;;;4992176;28;20285;-42
2021/08/17 07:34:27;;;;;;;0.80;0.70;;;16.80;53.60;;;;;;5003728;28;20247;-47
2021/08/17 07:36:57;;;;;;;0.77;0.68;;;16.70;53.60;;;;;;5011689;28;20261;-45
2021/08/17 07:39:28;;;;;;;1.63;1.05;;;16.70;53.60;;;;;;5011778;28;20298;-50
2021/08/17 07:41:59;;;;;;;0.80;0.80;;;16.70;53.70;;;;;;5011655;28;20201;-50
2021/08/17 07:44:31;;;;;;;0.70;0.57;;;16.70;53.80;;;;;;5011291;28;20708;-49
2021/08/17 07:47:02;;;;;;;0.80;0.70;;;16.70;53.70;;;;;;5011179;28;20739;-46
2021/08/17 07:49:32;;;;;;;1.27;0.90;;;16.70;53.70;;;;;;5011897;28;20330;-46
2021/08/17 07:52:03;;;;;;;0.80;0.80;;;16.70;53.70;;;;;;5010820;28;20228;-42
2021/08/17 07:54:33;;;;;;;0.80;0.80;;;16.70;53.70;;;;;;5011250;28;20224;-46
2021/08/17 07:57:03;;;;;;;0.90;0.90;;;16.70;53.70;;;;;;5011287;28;20248;-42
2021/08/17 07:59:36;;;;;;;1.08;0.80;;;16.70;54.30;;;;;;5011278;28;20259;-45
2021/08/17 08:02:06;;;;;;;0.80;0.80;;;16.60;53.70;;;;;;5011270;28;20236;-42
2021/08/17 08:04:37;;;;;;;0.80;0.80;;;16.60;53.70;;;;;;5011147;28;20232;-44
2021/08/17 08:07:07;;;;;;;0.90;0.90;;;16.60;53.70;;;;;;5011136;28;20256;-42
2021/08/17 08:09:38;;;;;;;1.02;0.90;;;16.60;53.70;;;;;;5010517;28;20236;-43
2021/08/17 08:12:13;;;;;;;0.75;0.70;;;16.60;53.70;;;;;;5010586;28;20228;-50
2021/08/17 08:14:46;;;;;;;0.73;0.73;;;16.60;53.70;;;;;;5010894;28;20291;-44
2021/08/17 08:17:16;;;;;;;0.70;0.70;;;16.50;53.70;;;;;;5010996;28;20252;-51
2021/08/17 08:19:46;;;;;;;1.60;0.80;;;16.50;53.70;;;;;;5011262;28;20294;-43
2021/08/17 08:22:17;;;;;;;1.13;0.70;;;16.50;53.70;;;;;;5001193;28;20276;-50
2021/08/17 08:24:47;;;;;;;0.70;0.70;;;16.50;53.70;;;;;;5005933;28;20306;-47
2021/08/17 08:27:18;;;;;;;0.70;0.70;;;16.50;53.80;;;;;;5009867;28;20767;-47
2021/08/17 08:29:50;;;;;;;2.05;0.73;;;16.50;53.80;;;;;;5011001;28;20233;-52
2021/08/17 08:32:20;;;;;;;0.60;0.60;;;16.40;53.80;;;;;;5007093;28;20228;-48
2021/08/17 08:34:51;;;;;;;0.95;0.80;;;16.40;53.80;;;;;;5011637;28;20201;-50
2021/08/17 08:37:21;;;;;;;3.13;0.75;;;16.40;53.90;;;;;;5010030;28;20252;-48
2021/08/17 08:39:53;;;;;;;0.50;0.50;;;16.40;54.00;;;;;;5009867;28;20263;-50
2021/08/17 08:42:23;;;;;;;1.85;0.82;;;16.40;54.10;;;;;;5009967;28;20288;-51
2021/08/17 08:44:56;;;;;;;1.38;0.70;;;16.40;54.10;;;;;;5007616;28;20529;-49
2021/08/17 08:47:27;;;;;;;0.70;0.70;;;16.40;54.10;;;;;;4990678;28;20689;-49
2021/08/17 08:49:57;;;;;;;0.63;0.60;;;16.40;54.00;;;;;;4990942;28;20297;-51
2021/08/17 08:52:28;;;;;;;0.88;0.63;;;16.40;54.10;;;;;;4990422;28;20262;-48
2021/08/17 08:55:01;;;;;;;0.90;0.77;;;16.40;54.10;;;;;;4990021;28;20229;-50
2021/08/17 08:57:31;;;;;;;1.85;0.60;;;16.30;54.10;;;;;;4991230;28;20308;-50
2021/08/17 09:00:03;;;;;;;0.50;0.50;;;16.30;54.10;;;;;;4991364;28;20284;-52
2021/08/17 09:02:34;;;;;;;0.40;0.40;;;16.30;54.10;;;;;;4991406;28;20237;-46
2021/08/17 09:05:04;;;;;;;0.85;0.70;;;16.30;54.00;;;;;;5011397;28;20622;-49
2021/08/17 09:07:42;;;;;;;0.60;0.60;;;16.30;54.10;;;;;;5013848;28;20712;-44
2021/08/17 09:10:13;;;;;;;1.30;0.63;;;16.30;54.10;;;;;;4996682;28;20255;-48
2021/08/17 09:12:45;;;;;;;1.05;0.70;;;16.30;54.10;;;;;;5013714;28;20205;-43
2021/08/17 09:15:20;;;;;;;0.60;0.60;;;16.20;54.10;;;;;;5013654;28;20236;-50
2021/08/17 09:18:00;;;;;;;0.82;0.80;;;16.20;54.10;;;;;;5013288;28;20259;-49
2021/08/17 09:20:33;;;;;;;0.85;0.60;;;16.20;54.10;;;;;;5012897;28;20324;-49
2021/08/17 09:23:26;;;;;;;1.67;0.63;;;16.20;54.20;;;;;;5013030;28;20196;-44
2021/08/17 09:25:57;;;;;;;0.80;0.68;;;16.20;54.30;;;;;;4992117;28;20240;-50
2021/08/17 09:28:29;;;;;;;1.17;0.85;;;16.20;54.30;;;;;;4993661;28;20800;-48
2021/08/17 09:31:01;;;;;;;0.93;0.73;;;16.20;54.30;;;;;;4994058;28;20232;-51
2021/08/17 09:33:39;;;;;;;2.13;0.63;;;16.10;54.30;;;;;;4997744;28;20224;-47
2021/08/17 09:36:10;;;;;;;1.13;0.80;;;16.10;54.30;;;;;;5013084;28;20228;-48
2021/08/17 09:38:41;;;;;;;0.63;0.63;;;16.10;54.30;;;;;;5013534;28;20201;-42
2021/08/17 09:41:25;;;;;;;0.85;0.70;;;16.10;54.30;;;;;;5013163;28;20324;-45
2021/08/17 09:43:59;;;;;;;0.60;0.60;;;16.10;54.30;;;;;;5013268;28;20251;-44
2021/08/17 09:46:32;;;;;;;1.58;0.60;;;16.10;54.30;;;;;;5011765;28;20244;-45
2021/08/17 09:49:20;;;;;;;1.08;0.70;;;16.10;54.30;;;;;;5012384;28;20197;-44
2021/08/17 09:51:50;;;;;;;0.70;0.70;;;16.00;54.30;;;;;;5012457;28;20243;-42
2021/08/17 09:54:21;;;;;;;0.60;0.60;;;16.10;54.30;;;;;;5013008;28;20228;-46
2021/08/17 09:57:01;;;;;;;0.70;0.70;;;16.00;54.30;;;;;;5011776;28;20252;-47
2021/08/17 09:59:32;;;;;;;0.70;0.70;;;16.00;54.40;;;;;;5012794;28;20280;-43
2021/08/17 10:02:05;;;;;;;0.50;0.50;;;16.00;54.40;;;;;;5011977;28;20231;-43
2021/08/17 10:04:35;;;;;;;0.77;0.65;;;16.00;54.40;;;;;;5012861;28;20700;-43
2021/08/17 10:07:06;;;;;;;0.93;0.60;;;16.00;54.40;;;;;;5011795;28;20255;-44
2021/08/17 10:09:37;;;;;;;0.60;0.60;;;16.00;54.50;;;;;;5012660;28;20236;-44
2021/08/17 10:12:08;;;;;;;0.70;0.70;;;16.00;54.50;;;;;;5013666;28;20236;-42
2021/08/17 10:14:38;;;;;;;0.60;0.60;;;15.90;54.40;;;;;;5011149;28;20244;-42
2021/08/17 10:17:10;;;;;;;0.80;0.80;;;15.90;54.40;;;;;;5012339;28;20244;-43
2021/08/17 10:19:41;;;;;;;0.93;0.57;;;15.90;54.40;;;;;;5012312;28;20233;-42
2021/08/17 10:22:17;;;;;;;0.60;0.60;;;15.90;54.40;;;;;;5012478;28;20280;-49
2021/08/17 10:24:50;;;;;;;0.60;0.60;;;15.90;54.40;;;;;;5012695;28;20236;-50
2021/08/17 10:27:28;;;;;;;0.50;0.50;;;15.90;54.40;;;;;;5012332;28;20310;-43
2021/08/17 10:30:10;;;;;;;0.95;0.70;;;15.80;54.40;;;;;;5012123;28;20296;-45
2021/08/17 10:32:49;;;;;;;0.75;0.60;;;15.80;54.40;;;;;;5000795;28;20276;-50
2021/08/17 10:36:01;;;;;;;0.68;0.60;;;15.80;54.40;;;;;;5010597;28;20207;-50
2021/08/17 10:38:48;;;;;;;0.60;0.60;;;15.80;54.50;;;;;;4997214;28;20200;-50
2021/08/17 10:41:42;;;;;;;0.82;0.70;;;15.80;54.50;;;;;;5012083;28;20311;-48
2021/08/17 10:44:17;;;;;;;0.90;0.90;;;15.80;54.50;;;;;;5006340;28;20239;-53
2021/08/17 10:46:51;;;;;;;2.00;0.80;;;15.70;54.50;;;;;;5011269;28;20770;-50
2021/08/17 10:49:53;;;;;;;1.00;0.90;;;15.70;54.50;;;;;;5012128;28;20460;-43
2021/08/17 10:52:36;;;;;;;0.70;0.68;;;15.70;54.60;;;;;;5012325;28;20207;-52
2021/08/17 10:55:28;;;;;;;0.70;0.70;;;15.70;54.50;;;;;;5005199;28;20694;-43
2021/08/17 10:58:00;;;;;;;0.95;0.80;;;15.70;54.60;;;;;;5007457;28;20256;-43
2021/08/17 11:00:56;;;;;;;1.40;0.70;;;15.70;54.50;;;;;;5012247;28;20705;-47
2021/08/17 11:03:47;;;;;;;0.82;0.75;;;15.60;54.60;;;;;;4995386;28;20240;-51
2021/08/17 11:06:43;;;;;;;0.80;0.80;;;15.60;54.50;;;;;;5011573;28;20712;-46
2021/08/17 11:09:14;;;;;;;1.00;0.88;;;15.60;54.60;;;;;;5011765;28;20197;-48
2021/08/17 11:11:45;;;;;;;0.70;0.70;;;15.60;54.60;;;;;;5012399;28;20288;-50
2021/08/17 11:14:18;;;;;;;2.03;0.90;;;15.60;54.60;;;;;;5010365;28;20240;-45
2021/08/17 11:16:50;;;;;;;1.08;0.88;;;15.60;54.60;;;;;;5012641;28;20311;-53
2021/08/17 11:19:21;;;;;;;1.33;0.90;;;15.60;54.70;;;;;;5012493;28;20318;-51
2021/08/17 11:21:53;;;;;;;1.38;1.15;;;15.50;54.70;;;;;;5011989;28;20233;-49
2021/08/17 11:24:25;;;;;;;2.22;0.80;;;15.50;54.70;;;;;;5012126;28;20235;-51
2021/08/17 11:26:57;;;;;;;5.88;1.50;;;15.50;54.70;;;;;;5011987;28;20251;-47
2021/08/17 11:29:33;;;;;;;9.43;1.48;;;15.50;54.70;;;;;;5012149;28;20228;-46
2021/08/17 11:32:04;;;;;;;14.45;2.17;;;15.50;54.70;;;;;;5011604;28;20246;-46
2021/08/17 11:34:34;;;;;;;13.55;2.08;;;15.50;54.70;;;;;;5011424;28;20239;-47
2021/08/17 11:37:08;;;;;;;10.40;2.05;;;15.50;54.70;;;;;;5010857;28;20307;-44
2021/08/17 11:39:41;;;;;;;4.22;1.50;;;15.50;54.80;;;;;;5011556;28;20624;-45
2021/08/17 11:42:18;;;;;;;5.22;1.50;;;15.40;54.70;;;;;;5011685;28;20221;-47
2021/08/17 11:44:50;;;;;;;5.50;1.73;;;15.40;54.70;;;;;;5011754;28;20251;-48
2021/08/17 11:47:20;;;;;;;6.03;1.92;;;15.40;54.70;;;;;;5011616;28;20708;-46
2021/08/17 11:49:51;;;;;;;4.30;1.40;;;15.40;54.70;;;;;;5011393;28;20236;-50
2021/08/17 11:52:24;;;;;;;3.72;1.58;;;15.40;54.70;;;;;;5011030;28;20284;-44
2021/08/17 11:54:58;;;;;;;3.25;1.40;;;15.40;54.80;;;;;;5012055;28;20232;-49
2021/08/17 11:57:32;;;;;;;5.00;1.33;;;15.30;54.70;;;;;;5011548;28;20247;-48
2021/08/17 12:00:09;;;;;;;2.92;1.45;;;15.30;54.70;;;;;;5011273;28;20232;-49
2021/08/17 12:02:39;;;;;;;4.50;1.75;;;15.30;54.80;;;;;;5011551;28;20609;-48
2021/08/17 12:05:11;;;;;;;2.92;1.55;;;15.30;54.70;;;;;;5011593;28;20720;-51
2021/08/17 12:07:43;;;;;;;4.57;1.83;;;15.30;54.80;;;;;;5011356;28;20788;-49
2021/08/17 12:10:14;;;;;;;5.53;1.70;;;15.30;54.80;;;;;;5011129;28;20701;-50
2021/08/17 12:13:03;;;;;;;3.90;1.50;;;15.30;54.80;;;;;;5023353;23;20673;-58
2021/08/17 12:15:36;;;;;;;3.33;1.55;;;15.20;54.70;;;;;;4991311;28;20229;-59
2021/08/17 12:18:07;;;;;;;4.35;1.70;;;15.20;54.70;;;;;;4991558;28;20665;-59
2021/08/17 12:20:39;;;;;;;3.92;1.77;;;15.20;54.70;;;;;;4991314;28;20331;-58
2021/08/17 12:23:21;;;;;;;3.22;1.73;;;15.20;54.80;;;;;;4991140;28;20228;-58
2021/08/17 12:25:52;;;;;;;1.67;1.35;;;15.20;54.80;;;;;;4991666;28;20285;-57
2021/08/17 12:28:33;;;;;;;1.85;1.45;;;15.20;54.80;;;;;;4991987;28;20292;-57
2021/08/17 12:31:14;;;;;;;3.30;1.73;;;15.20;54.80;;;;;;4991836;28;20251;-59
2021/08/17 12:33:47;;;;;;;2.08;1.60;;;15.10;54.80;;;;;;4991291;28;20268;-59
2021/08/17 12:36:18;;;;;;;2.28;1.50;;;15.10;54.80;;;;;;4987919;28;20218;-58
2021/08/17 12:38:51;;;;;;;2.45;1.65;;;15.10;54.80;;;;;;4992799;28;20464;-59
2021/08/17 12:41:34;;;;;;;2.15;1.75;;;15.10;54.80;;;;;;4994776;28;20220;-58
2021/08/17 12:44:04;;;;;;;4.10;1.77;;;15.10;54.90;;;;;;4995017;28;20233;-59
2021/08/17 12:46:35;;;;;;;3.53;1.60;;;15.10;54.80;;;;;;4995597;28;20267;-58
2021/08/17 12:49:05;;;;;;;3.65;1.85;;;15.10;54.90;;;;;;4995640;28;20700;-58
2021/08/17 12:51:36;;;;;;;3.20;1.70;;;15.10;55.50;;;;;;4995341;28;20666;-59
2021/08/17 12:54:08;;;;;;;2.53;1.88;;;15.00;54.90;;;;;;4995331;28;20256;-57
2021/08/17 12:56:38;;;;;;;3.58;1.90;;;15.00;54.90;;;;;;4992835;28;20249;-59
2021/08/17 12:59:09;;;;;;;5.75;2.20;;;15.00;54.90;;;;;;4995423;28;20229;-57
2021/08/17 13:01:39;;;;;;;2.60;1.70;;;15.00;54.90;;;;;;4995179;28;20760;-58
2021/08/17 13:04:10;;;;;;;2.65;1.80;;;15.00;54.90;;;;;;4995327;28;20678;-58
2021/08/17 13:06:40;;;;;;;2.25;1.63;;;14.90;54.90;;;;;;4994761;28;20221;-58
2021/08/17 13:09:12;;;;;;;3.05;1.95;;;15.00;54.90;;;;;;4995381;28;20449;-59
2021/08/17 13:11:43;;;;;;;3.97;2.10;;;15.00;55.00;;;;;;4994324;28;20734;-58